MRPVMRLM

Guest
Details From MRPV - TOBIAS BOLANOS INTL
To MRLM - LIMON INTL
Flight Number -
Tags generated
Created
Modified
Stats Distance 66 nm / 123 km
Max Altitude 13,000 ft / 3,962 m
Waypoints 4
Social Downloads 1
Likes 0
Share VATSIM

Download

Looking for another format? Having issues loading an existing format? Contact us
Advertisement - Login to hide

Notes

Basic altitude profile: - Ascent Rate: 500ft/min - Ascent Speed: 80kts - Cruise Altitude: 9000ft - Cruise Speed: 100kts - Descent Rate: 500ft/min - Descent Speed: 100kts Options: - Use NATs: yes - Use PACOTS: yes - Use low airways: yes - Use high airways: no

Route

MRPV CLARA B690 LIO MRLM

ID Type Via Altitude Latitude Longitude Leg Dist Tot Dist Heading (true) Name
O MRPV APT - 0 ft / 0 m 9.95705˚ -84.13980˚ - 0 nm - TOBIAS BOLANOS INTL
CLARA FIX - 8,700 ft / 2,652 m 9.97544˚ -83.72392˚ 24 nm 24 nm 87° / 87° -
LIO VOR B690 (AWY-LO) 13,000 ft / 3,962 m 9.96314˚ -83.02717˚ 41 nm 65 nm 91° / 91° LIMON VOR-DME
O MRLM APT - 0 ft / 0 m 9.95796˚ -83.02201˚ 0 nm 66 nm 136° / 136° LIMON INTL

Altitude Profile

Advertisement - Login to hide

MRPV

Details ICAO MRPV (SYQ)
Name TOBIAS BOLANOS INTL
Region Costa Rica
Timezone America/Costa_Rica (UTC-6.0)
Stats Elevation 3,287 ft / 1,002 m (AMSL)
Location 9.957052° -84.139797°
Runways 1
Magnetic Variation 1.752° W

METAR

MRPV 121900Z 09019KT 9999 FEW025 BKN100 19/12 A3005 NOSIG

Decode

TAF

TAF TAF MRPV 121700Z 1218/1318 09016G30KT 9999 FEW030 BKN100 TX21/1318Z TN16/1308Z TEMPO 1218/1303 RA TEMPO 1312/1318 DZ

Decode

Departure Runways

ID Width Length Bearing (true) Bearing (mag) Surface Threshold Offset Overrun Length
09 60 ft / 18 m 5,304 ft / 1,617 m 95.09° 96.84° Asphalt 200 ft / 61 m 0 ft / 0 m
27 60 ft / 18 m 5,304 ft / 1,617 m 275.10° 276.85° Asphalt 0 ft / 0 m 0 ft / 0 m

MRLM

Details ICAO MRLM (LIO)
Name LIMON INTL
Region Costa Rica
Timezone Unknown (UTC+0.0)
Stats Elevation 7 ft / 2 m (AMSL)
Location 9.957959° -83.022006°
Runways 1
Magnetic Variation 2.423° W

METAR

MRLM 122000Z 30009KT 9999 SCT020 BKN110 25/18 A2992

Decode

TAF

TAF MRLM 121700Z 1218/1318 29010KT 9999 SCT015 TX26/1219Z TN20/1310Z TEMPO 1304/1308 5000 RA BKN020

Decode

Destination Runways

ID Width Length Bearing (true) Bearing (mag) Surface Threshold Offset Overrun Length
14 98 ft / 30 m 5,897 ft / 1,797 m 146.50° 148.92° Asphalt 0 ft / 0 m 0 ft / 0 m
32 98 ft / 30 m 5,897 ft / 1,797 m 326.50° 328.92° Asphalt 0 ft / 0 m 0 ft / 0 m

Popular Alternatives